TimeMST,TemperatureF,Dew PointF,Humidity,Sea Level PressureIn,VisibilityMPH,Wind Direction,Wind SpeedMPH,Gust SpeedMPH,PrecipitationIn,Events,Conditions,WindDirDegrees,DateUTC
12:15 AM,39.2,28.4,65,29.86,10.0,SE,24.2,-,N/A,,Clear,140,2013-01-10 07:15:00
12:35 AM,39.2,28.4,65,29.86,10.0,SE,26.5,31.1,N/A,,Clear,140,2013-01-10 07:35:00
12:55 AM,37.4,28.4,70,29.86,10.0,SE,18.4,-,N/A,,Clear,130,2013-01-10 07:55:00
1:15 AM,39.2,26.6,61,29.85,10.0,ESE,9.2,-,N/A,,Clear,120,2013-01-10 08:15:00
1:35 AM,37.4,28.4,70,29.84,10.0,SE,19.6,-,N/A,,Clear,140,2013-01-10 08:35:00
1:55 AM,39.2,28.4,65,29.83,10.0,SE,21.9,-,N/A,,Clear,140,2013-01-10 08:55:00
2:15 AM,39.2,26.6,61,29.82,10.0,SSE,19.6,-,N/A,,Clear,150,2013-01-10 09:15:00
2:35 AM,39.2,28.4,65,29.80,10.0,SE,11.5,-,N/A,,Clear,130,2013-01-10 09:35:00
2:55 AM,39.2,28.4,65,29.79,10.0,SE,12.7,20.7,N/A,,Clear,130,2013-01-10 09:55:00
3:15 AM,39.2,26.6,61,29.78,10.0,SE,25.3,-,N/A,,Clear,140,2013-01-10 10:15:00
3:35 AM,39.2,28.4,65,29.77,10.0,SE,21.9,27.6,N/A,,Clear,140,2013-01-10 10:35:00
3:55 AM,39.2,26.6,61,29.76,10.0,SSE,23.0,29.9,N/A,,Clear,150,2013-01-10 10:55:00
4:15 AM,39.2,26.6,61,29.74,10.0,SSE,20.7,-,N/A,,Clear,160,2013-01-10 11:15:00
4:35 AM,39.2,26.6,61,29.73,10.0,SSE,25.3,-,N/A,,Clear,150,2013-01-10 11:35:00
4:55 AM,37.4,26.6,65,29.72,10.0,SSE,26.5,33.4,N/A,,Clear,150,2013-01-10 11:55:00
5:15 AM,39.2,26.6,61,29.70,10.0,SSE,29.9,34.5,N/A,,Clear,150,2013-01-10 12:15:00
5:35 AM,39.2,26.6,61,29.70,10.0,SSE,23.0,-,N/A,,Clear,150,2013-01-10 12:35:00
5:55 AM,39.2,26.6,61,29.70,10.0,SSE,24.2,29.9,N/A,,Clear,150,2013-01-10 12:55:00
6:15 AM,39.2,26.6,61,29.70,10.0,SSE,20.7,-,N/A,,Clear,150,2013-01-10 13:15:00
6:35 AM,39.2,26.6,61,29.68,10.0,SE,24.2,29.9,N/A,,Mostly Cloudy,140,2013-01-10 13:35:00
6:50 AM,37.4,26.6,65,29.67,10.0,SE,29.9,-,N/A,,Overcast,140,2013-01-10 13:50:00
7:50 AM,39.2,26.6,61,29.61,15.0,SE,29.9,-,N/A,,Mostly Cloudy,130,2013-01-10 14:50:00
8:51 AM,39.2,26.6,61,29.62,15.0,SE,25.3,31.1,N/A,,Mostly Cloudy,130,2013-01-10 15:51:00
9:50 AM,39.2,26.6,61,29.62,15.0,SE,25.3,-,N/A,,Mostly Cloudy,140,2013-01-10 16:50:00
11:48 AM,42.8,26.6,53,29.61,15.0,ESE,11.5,24.2,N/A,,Overcast,120,2013-01-10 18:48:00
12:47 PM,42.8,26.6,53,29.56,15.0,SE,10.4,-,N/A,,Mostly Cloudy,140,2013-01-10 19:47:00
1:47 PM,42.8,26.6,53,29.54,15.0,South,5.8,-,N/A,,Overcast,180,2013-01-10 20:47:00
2:50 PM,42.8,26.6,53,29.53,15.0,Calm,Calm,-,N/A,,Overcast,0,2013-01-10 21:50:00
3:51 PM,41.0,26.6,57,29.51,15.0,Variable,3.5,-,N/A,,Mostly Cloudy,0,2013-01-10 22:51:00
4:16 PM,39.2,26.6,61,29.51,15.0,West,13.8,26.5,N/A,,Mostly Cloudy,280,2013-01-10 23:16:00
4:55 PM,35.6,26.6,70,29.51,7.0,West,5.8,-,N/A,,Overcast,280,2013-01-10 23:55:00
5:47 PM,32.0,26.6,80,29.53,0.5,West,8.1,-,N/A,Snow,Snow,270,2013-01-11 00:47:00
6:17 PM,30.2,26.6,86,29.54,3.0,NW,9.2,-,N/A,Snow,Light Snow,310,2013-01-11 01:17:00
6:47 PM,30.2,26.6,86,29.55,3.0,WNW,4.6,-,N/A,Snow,Light Snow,300,2013-01-11 01:47:00
7:55 PM,28.4,21.2,74,29.56,3.0,West,20.7,-,N/A,Snow,Light Snow,280,2013-01-11 02:55:00
8:50 PM,26.6,23.0,86,29.60,5.0,NW,16.1,-,N/A,Snow,Light Snow,310,2013-01-11 03:50:00
9:15 PM,26.6,21.2,80,29.58,10.0,NW,12.7,-,N/A,,Overcast,320,2013-01-11 04:15:00
9:35 PM,26.6,21.2,80,29.60,10.0,WNW,10.4,-,N/A,,Overcast,300,2013-01-11 04:35:00
10:15 PM,26.6,21.2,80,29.59,10.0,West,15.0,-,N/A,,Overcast,280,2013-01-11 05:15:00
10:35 PM,26.6,21.2,80,29.59,10.0,WNW,13.8,-,N/A,,Overcast,290,2013-01-11 05:35:00
10:55 PM,24.8,21.2,86,29.59,10.0,WNW,16.1,-,N/A,,Overcast,290,2013-01-11 05:55:00
11:15 PM,24.8,21.2,86,29.59,10.0,WNW,17.3,-,N/A,,Overcast,290,2013-01-11 06:15:00
11:35 PM,24.8,21.2,86,29.60,10.0,WNW,16.1,-,N/A,,Overcast,290,2013-01-11 06:35:00
11:55 PM,24.8,21.2,86,29.59,10.0,WNW,16.1,-,N/A,,Overcast,300,2013-01-11 06:55:00